Time;durP1;ratioP1;P1;durP2;ratioP2;P2;SDS_P1;SDS_P2;PMS_P1;PMS_P2;Temp;Humidity;BMP_temperature;BMP_pressure;BME280_temperature;BME280_humidity;BME280_pressure;Samples;Min_cycle;Max_cycle;Signal;HPM_P1;HPM_P2
2022/06/14 00:03:31;;;;;;;;;;;;;;;18.17;100.00;99338.34;5012973;28;1170;-64
2022/06/14 00:06:02;;;;;;;;;;;;;;;18.31;100.00;99336.97;5012950;28;827;-64
2022/06/14 00:08:30;;;;;;;;;;;;;;;18.32;100.00;99333.69;5012657;28;877;-65
2022/06/14 00:10:59;;;;;;;;;;;;;;;18.32;100.00;99330.09;5012565;28;842;-64
2022/06/14 00:13:27;;;;;;;;;;;;;;;18.30;100.00;99335.38;5012653;28;918;-64
2022/06/14 00:15:54;;;;;;;;;;;;;;;18.31;100.00;99334.94;5012954;28;800;-64
2022/06/14 00:18:22;;;;;;;;;;;;;;;18.39;100.00;99337.41;5012421;28;1946;-65
2022/06/14 00:20:49;;;;;;;;;;;;;;;18.43;100.00;99330.41;5012677;28;852;-64
2022/06/14 00:23:17;;;;;;;;;;;;;;;18.48;100.00;99329.03;5012398;28;838;-64
2022/06/14 00:25:46;;;;;;;;;;;;;;;18.59;100.00;99325.75;5012330;28;807;-64
2022/06/14 00:28:14;;;;;;;;;;;;;;;18.71;100.00;99324.75;5012253;28;990;-63
2022/06/14 00:30:42;;;;;;;;;;;;;;;18.79;100.00;99319.66;5012140;28;1266;-64
2022/06/14 00:33:10;;;;;;;;;;;;;;;18.97;100.00;99314.78;5012311;28;795;-65
2022/06/14 00:35:37;;;;;;;;;;;;;;;19.27;100.00;99320.56;5012171;28;807;-65
2022/06/14 00:38:05;;;;;;;;;;;;;;;19.22;100.00;99324.00;5012106;28;1972;-64
2022/06/14 00:40:34;;;;;;;;;;;;;;;19.06;100.00;99319.56;5011429;28;815;-66
2022/06/14 00:43:04;;;;;;;;;;;;;;;18.96;100.00;99323.63;5011920;28;938;-65
2022/06/14 00:45:32;;;;;;;;;;;;;;;18.96;100.00;99327.22;5012207;28;910;-65
2022/06/14 00:48:04;;;;;;;;;;;;;;;19.00;100.00;99324.25;5012285;28;803;-64
2022/06/14 00:50:36;;;;;;;;;;;;;;;19.02;100.00;99326.59;5012075;28;902;-64
2022/06/14 00:53:14;;;;;;;;;;;;;;;19.05;100.00;99331.22;5011922;28;803;-65
2022/06/14 00:56:02;;;;;;;;;;;;;;;19.08;100.00;99325.47;5011964;28;854;-65
2022/06/14 00:58:50;;;;;;;;;;;;;;;19.20;100.00;99326.50;5011720;28;1890;-66
2022/06/14 01:01:21;;;;;;;;;;;;;;;19.38;100.00;99331.25;5011719;28;1172;-64
2022/06/14 01:03:57;;;;;;;;;;;;;;;19.51;100.00;99328.22;5011789;28;799;-64
2022/06/14 01:06:28;;;;;;;;;;;;;;;19.64;100.00;99323.16;5011784;28;819;-67
2022/06/14 01:09:01;;;;;;;;;;;;;;;19.78;100.00;99319.69;5011794;28;850;-65
2022/06/14 01:11:32;;;;;;;;;;;;;;;19.84;100.00;99322.59;5011774;28;815;-64
2022/06/14 01:14:00;;;;;;;;;;;;;;;19.88;99.97;99320.38;4994369;28;1272;-64
2022/06/14 01:16:29;;;;;;;;;;;;;;;19.93;99.64;99318.97;5011805;28;870;-64
2022/06/14 01:18:57;;;;;;;;;;;;;;;19.96;98.06;99312.38;5011622;28;1958;-65
2022/06/14 01:21:25;;;;;;;;;;;;;;;20.18;95.89;99312.03;5011955;28;796;-66
2022/06/14 01:23:53;;;;;;;;;;;;;;;20.37;94.14;99307.03;5011660;28;861;-66
2022/06/14 01:26:22;;;;;;;;;;;;;;;20.42;92.92;99303.59;5011769;28;881;-67
2022/06/14 01:28:59;;;;;;;;;;;;;;;20.57;90.23;99310.00;5011876;28;940;-66
2022/06/14 01:31:28;;;;;;;;;;;;;;;20.73;88.80;99317.16;5011296;28;1473;-66
2022/06/14 01:33:58;;;;;;;;;;;;;;;20.78;88.26;99307.28;5012001;28;783;-66
2022/06/14 01:36:33;;;;;;;;;;;;;;;20.82;87.70;99310.66;5011532;28;906;-64
2022/06/14 01:39:03;;;;;;;;;;;;;;;20.83;88.50;99315.03;5011491;28;1914;-65
2022/06/14 01:41:50;;;;;;;;;;;;;;;20.76;89.96;99313.41;5011483;28;893;-64
2022/06/14 01:44:24;;;;;;;;;;;;;;;20.63;91.45;99312.13;5011467;28;858;-66
2022/06/14 01:47:09;;;;;;;;;;;;;;;20.55;91.90;99314.53;4993800;28;1185;-65
2022/06/14 01:52:25;;;;;;;;;;;;;;;20.62;90.67;99322.59;5012466;28;605;-65
2022/06/14 01:54:57;;;;;;;;;;;;;;;20.70;89.62;99323.75;5015092;28;807;-65
2022/06/14 01:57:46;;;;;;;;;;;;;;;20.67;91.87;99321.13;5015205;28;910;-65
2022/06/14 02:00:16;;;;;;;;;;;;;;;20.53;92.87;99319.84;5014971;28;1878;-66
2022/06/14 02:02:46;;;;;;;;;;;;;;;20.60;90.29;99322.28;5015022;28;875;-66
2022/06/14 02:05:21;;;;;;;;;;;;;;;20.68;90.54;99322.69;5014935;28;870;-65
2022/06/14 02:08:06;;;;;;;;;;;;;;;20.65;92.68;99329.25;5014979;28;819;-65
2022/06/14 02:10:45;;;;;;;;;;;;;;;20.60;91.36;99325.88;5015006;28;891;-64
2022/06/14 02:13:15;;;;;;;;;;;;;;;20.75;89.59;99317.44;5014769;28;881;-64
2022/06/14 02:16:08;;;;;;;;;;;;;;;20.73;91.62;99319.19;5014922;28;843;-65
2022/06/14 02:18:40;;;;;;;;;;;;;;;20.71;90.35;99321.72;5014627;28;1882;-67
2022/06/14 02:21:35;;;;;;;;;;;;;;;20.83;88.51;99326.28;5014591;28;959;-66
2022/06/14 02:24:31;;;;;;;;;;;;;;;20.92;87.95;99333.81;4991923;28;1158;-65
2022/06/14 02:27:10;;;;;;;;;;;;;;;21.01;86.99;99333.72;5002103;28;1417;-65
2022/06/14 02:29:43;;;;;;;;;;;;;;;21.17;84.39;99330.41;5014582;28;1426;-66
2022/06/14 02:32:19;;;;;;;;;;;;;;;21.28;83.65;99329.78;4996770;28;1368;-66
2022/06/14 02:34:51;;;;;;;;;;;;;;;21.29;83.97;99334.13;5014369;28;791;-65
2022/06/14 02:37:21;;;;;;;;;;;;;;;21.29;83.20;99331.31;5014439;28;875;-65
2022/06/14 02:39:54;;;;;;;;;;;;;;;21.32;83.02;99329.59;5014268;28;1905;-65
2022/06/14 02:42:42;;;;;;;;;;;;;;;21.30;82.47;99337.75;5014241;28;843;-67
2022/06/14 02:45:09;;;;;;;;;;;;;;;21.38;81.01;99334.03;5014070;28;1144;-64
2022/06/14 02:47:42;;;;;;;;;;;;;;;21.48;79.59;99336.75;5014184;28;811;-65
2022/06/14 02:50:19;;;;;;;;;;;;;;;21.53;79.71;99336.03;5014154;28;803;-65
2022/06/14 02:52:58;;;;;;;;;;;;;;;21.55;79.21;99330.72;5014061;28;827;-64
2022/06/14 02:55:55;;;;;;;;;;;;;;;21.63;78.06;99336.69;5014022;28;812;-65
2022/06/14 02:58:28;;;;;;;;;;;;;;;21.70;77.46;99341.91;5001700;28;1981;-64
2022/06/14 03:01:16;;;;;;;;;;;;;;;21.74;76.99;99339.66;5013855;28;823;-64
2022/06/14 03:03:52;;;;;;;;;;;;;;;21.76;77.17;99337.94;5012960;28;831;-64
2022/06/14 03:06:19;;;;;;;;;;;;;;;21.79;77.10;99339.75;5014118;28;819;-64
2022/06/14 03:08:48;;;;;;;;;;;;;;;21.88;75.86;99341.66;5014009;28;772;-65
2022/06/14 03:11:25;;;;;;;;;;;;;;;21.93;76.41;99337.34;5013836;28;903;-63
2022/06/14 03:14:19;;;;;;;;;;;;;;;21.97;75.98;99338.69;5013555;28;870;-63
2022/06/14 03:16:44;;;;;;;;;;;;;;;22.02;76.52;99345.66;5011261;28;1055;-65
2022/06/14 03:19:17;;;;;;;;;;;;;;;22.03;76.67;99336.72;5013749;28;1957;-63
2022/06/14 03:21:52;;;;;;;;;;;;;;;22.01;77.13;99349.75;5013664;28;819;-63
2022/06/14 03:24:22;;;;;;;;;;;;;;;22.00;78.36;99345.38;5013804;28;806;-63
2022/06/14 03:26:49;;;;;;;;;;;;;;;22.02;77.80;99354.88;5013445;28;838;-64
2022/06/14 03:29:22;;;;;;;;;;;;;;;22.08;78.31;99348.53;5013576;28;942;-63
2022/06/14 03:32:02;;;;;;;;;;;;;;;22.11;77.95;99353.19;5013079;28;1333;-63
2022/06/14 03:34:35;;;;;;;;;;;;;;;22.21;75.00;99346.91;5013262;28;815;-63
2022/06/14 03:37:01;;;;;;;;;;;;;;;22.30;74.16;99343.22;5013398;28;933;-62
2022/06/14 03:39:35;;;;;;;;;;;;;;;22.38;73.68;99340.72;5013131;28;1922;-63
2022/06/14 03:42:04;;;;;;;;;;;;;;;22.49;71.95;99342.88;5013388;28;874;-65
2022/06/14 03:44:31;;;;;;;;;;;;;;;22.53;71.82;99344.22;5013097;28;823;-63
2022/06/14 03:47:19;;;;;;;;;;;;;;;22.56;71.08;99346.03;5013249;28;834;-66
2022/06/14 03:49:48;;;;;;;;;;;;;;;22.58;70.78;99346.31;5002721;28;1228;-65
2022/06/14 03:52:51;;;;;;;;;;;;;;;22.60;71.31;99343.00;5012981;28;859;-63
2022/06/14 03:55:36;;;;;;;;;;;;;;;22.61;71.52;99350.94;4952344;29;1169;-62
2022/06/14 03:58:17;;;;;;;;;;;;;;;22.67;72.64;99336.16;4952186;29;1875;-63
2022/06/14 04:00:51;;;;;;;;;;;;;;;22.77;72.76;99343.94;4952477;29;870;-62
2022/06/14 04:03:24;;;;;;;;;;;;;;;22.86;71.82;99347.84;4952226;29;899;-63
2022/06/14 04:06:11;;;;;;;;;;;;;;;22.94;71.06;99340.50;4952526;29;883;-63
2022/06/14 04:08:38;;;;;;;;;;;;;;;22.99;70.27;99342.59;4952396;29;812;-66
2022/06/14 04:11:25;;;;;;;;;;;;;;;23.07;69.72;99340.13;4952485;29;828;-61
2022/06/14 04:14:18;;;;;;;;;;;;;;;23.11;69.22;99341.44;4952139;29;886;-63
2022/06/14 04:17:03;;;;;;;;;;;;;;;23.21;67.83;99350.47;4949510;28;1158;-64
2022/06/14 04:19:31;;;;;;;;;;;;;;;23.32;68.06;99346.97;4952187;29;1883;-61
2022/06/14 04:22:00;;;;;;;;;;;;;;;23.41;66.81;99346.78;4952005;29;902;-65
2022/06/14 04:24:47;;;;;;;;;;;;;;;23.46;66.71;99354.50;4952344;29;847;-62
2022/06/14 04:27:20;;;;;;;;;;;;;;;23.58;67.62;99358.19;4951983;29;859;-63
2022/06/14 04:29:51;;;;;;;;;;;;;;;23.53;66.65;99353.25;4995691;28;1378;-63
2022/06/14 04:32:20;;;;;;;;;;;;;;;23.39;67.06;99352.91;5012232;28;862;-65
2022/06/14 04:34:49;;;;;;;;;;;;;;;23.26;68.15;99366.66;5012233;28;823;-61
2022/06/14 04:37:16;;;;;;;;;;;;;;;23.14;68.47;99362.22;5012361;28;875;-64
2022/06/14 04:39:44;;;;;;;;;;;;;;;23.04;69.20;99372.88;5012077;28;1902;-63
2022/06/14 04:42:13;;;;;;;;;;;;;;;22.96;69.88;99368.97;5012016;28;910;-62
2022/06/14 04:45:07;;;;;;;;;;;;;;;22.93;69.65;99381.97;5012749;28;771;-66
2022/06/14 04:47:40;;;;;;;;;;;;;;;22.94;69.18;99372.28;4988970;28;1255;-63
2022/06/14 04:50:07;;;;;;;;;;;;;;;22.97;69.09;99384.59;5011981;28;881;-64
2022/06/14 04:52:46;;;;;;;;;;;;;;;23.01;69.52;99379.53;5012115;28;855;-63
2022/06/14 04:55:16;;;;;;;;;;;;;;;23.05;71.04;99376.50;5012233;28;835;-64
2022/06/14 04:57:55;;;;;;;;;;;;;;;23.01;69.81;99383.09;5011805;28;1038;-66
2022/06/14 05:00:27;;;;;;;;;;;;;;;23.04;68.97;99384.16;5011995;28;1874;-64
2022/06/14 05:03:29;;;;;;;;;;;;;;;23.07;69.24;99388.81;5012117;28;902;-63
2022/06/14 05:06:00;;;;;;;;;;;;;;;23.06;68.92;99400.56;4951330;29;1180;-64
2022/06/14 05:08:27;;;;;;;;;;;;;;;23.06;68.52;99400.56;5001283;28;880;-64
2022/06/14 05:11:00;;;;;;;;;;;;;;;23.03;68.75;99399.53;5011802;28;862;-62
2022/06/14 05:13:46;;;;;;;;;;;;;;;23.01;68.97;99408.47;4993956;28;1182;-63
2022/06/14 05:16:24;;;;;;;;;;;;;;;22.98;68.90;99412.28;5011826;28;858;-62
2022/06/14 05:19:02;;;;;;;;;;;;;;;22.96;69.50;99408.41;5011934;28;1885;-64
2022/06/14 05:21:44;;;;;;;;;;;;;;;22.96;69.57;99414.81;5011718;28;834;-63
2022/06/14 05:24:11;;;;;;;;;;;;;;;22.87;71.75;99414.97;5011656;28;839;-63
2022/06/14 05:26:54;;;;;;;;;;;;;;;22.82;73.16;99415.69;5011669;28;850;-62
2022/06/14 05:29:29;;;;;;;;;;;;;;;22.78;74.24;99415.13;5015882;28;914;-62
2022/06/14 05:32:05;;;;;;;;;;;;;;;22.78;75.52;99415.13;5015591;28;1213;-62
2022/06/14 05:34:51;;;;;;;;;;;;;;;22.84;75.82;99422.38;5015799;28;864;-63
2022/06/14 05:37:37;;;;;;;;;;;;;;;22.94;74.60;99413.78;5015728;28;826;-64
2022/06/14 05:40:18;;;;;;;;;;;;;;;23.10;73.89;99429.31;5015318;28;1963;-63
2022/06/14 05:42:51;;;;;;;;;;;;;;;23.25;73.22;99427.13;5015245;28;803;-64
2022/06/14 05:45:21;;;;;;;;;;;;;;;23.35;72.80;99428.50;5015290;28;867;-63
2022/06/14 05:47:50;;;;;;;;;;;;;;;23.43;72.93;99420.38;5015398;28;874;-63
2022/06/14 05:50:29;;;;;;;;;;;;;;;23.54;72.35;99412.00;5015216;28;835;-64
2022/06/14 05:53:08;;;;;;;;;;;;;;;23.78;72.70;99428.59;5015605;28;990;-64
2022/06/14 05:55:40;;;;;;;;;;;;;;;23.93;71.77;99424.84;4997404;28;1189;-64
2022/06/14 05:58:17;;;;;;;;;;;;;;;24.05;70.95;99417.97;5015015;28;1918;-64
2022/06/14 06:00:55;;;;;;;;;;;;;;;24.14;71.08;99417.75;5015038;28;811;-64
2022/06/14 06:03:27;;;;;;;;;;;;;;;24.28;70.66;99416.00;5014964;28;827;-66
2022/06/14 06:06:07;;;;;;;;;;;;;;;24.39;72.17;99426.59;5015162;28;851;-64
2022/06/14 06:08:40;;;;;;;;;;;;;;;24.44;71.16;99418.13;5014935;28;902;-63
2022/06/14 06:11:19;;;;;;;;;;;;;;;24.63;72.72;99423.38;4997554;28;1589;-66
2022/06/14 06:13:52;;;;;;;;;;;;;;;25.35;69.53;99427.63;5015014;28;894;-66
2022/06/14 06:16:25;;;;;;;;;;;;;;;25.39;70.30;99430.97;5014638;28;819;-64
2022/06/14 06:19:09;;;;;;;;;;;;;;;25.19;70.47;99420.63;5014705;28;1949;-64
2022/06/14 06:21:41;;;;;;;;;;;;;;;25.13;72.35;99428.31;5014641;28;823;-63
2022/06/14 06:24:13;;;;;;;;;;;;;;;25.58;68.66;99431.22;5014604;28;874;-64
2022/06/14 06:26:42;;;;;;;;;;;;;;;26.65;62.04;99432.97;5014529;28;862;-63
2022/06/14 06:29:17;;;;;;;;;;;;;;;27.75;59.71;99436.06;5014752;28;923;-65
2022/06/14 06:31:45;;;;;;;;;;;;;;;27.72;59.59;99434.25;5014200;28;1235;-63
2022/06/14 06:46:35;;;;;;;;;;;;;;;29.63;57.42;99430.97;5014701;28;617;-66
2022/06/14 06:49:06;;;;;;;;;;;;;;;30.74;55.27;99423.63;5014162;28;847;-62
2022/06/14 06:51:42;;;;;;;;;;;;;;;31.12;54.20;99435.47;5014070;28;796;-64
2022/06/14 06:54:15;;;;;;;;;;;;;;;31.02;54.06;99430.78;5013993;28;859;-65
2022/06/14 06:56:45;;;;;;;;;;;;;;;31.49;51.09;99430.72;5014024;28;855;-64
2022/06/14 06:59:23;;;;;;;;;;;;;;;31.57;50.36;99436.47;5013872;28;1906;-65
2022/06/14 07:01:53;;;;;;;;;;;;;;;31.72;48.62;99441.53;5013827;28;934;-61
2022/06/14 07:04:20;;;;;;;;;;;;;;;32.12;50.65;99444.91;5014157;28;916;-64
2022/06/14 07:06:53;;;;;;;;;;;;;;;30.92;52.42;99439.09;5014238;28;763;-63
2022/06/14 07:09:21;;;;;;;;;;;;;;;30.92;52.95;99448.41;5013810;28;897;-64
2022/06/14 07:11:57;;;;;;;;;;;;;;;31.64;51.95;99447.19;4995966;28;1201;-64
2022/06/14 07:14:31;;;;;;;;;;;;;;;32.49;50.35;99454.22;5013706;28;795;-65
2022/06/14 07:17:07;;;;;;;;;;;;;;;32.78;46.82;99456.31;5013569;28;838;-64
2022/06/14 07:19:40;;;;;;;;;;;;;;;32.70;47.81;99451.28;5013510;28;1890;-64
2022/06/14 07:22:20;;;;;;;;;;;;;;;32.62;48.38;99464.81;5013477;28;811;-64
2022/06/14 07:24:49;;;;;;;;;;;;;;;32.26;48.10;99457.00;5013523;28;819;-62
2022/06/14 07:27:21;;;;;;;;;;;;;;;31.61;49.92;99467.56;5013433;28;815;-63
2022/06/14 07:29:51;;;;;;;;;;;;;;;31.97;51.32;99464.78;5013305;28;1297;-62
2022/06/14 07:44:50;;;;;;;;;;;;;;;27.96;61.35;99487.50;5013339;28;606;-63
2022/06/14 07:47:28;;;;;;;;;;;;;;;27.88;60.17;99488.06;5013040;28;902;-62
2022/06/14 07:49:57;;;;;;;;;;;;;;;27.57;61.08;99485.75;5012484;28;882;-63
2022/06/14 07:52:27;;;;;;;;;;;;;;;27.96;59.40;99491.13;5013220;28;897;-64
2022/06/14 07:54:59;;;;;;;;;;;;;;;27.89;59.03;99488.88;5012944;28;823;-63
2022/06/14 07:57:31;;;;;;;;;;;;;;;28.25;57.42;99494.41;5012878;28;804;-62
2022/06/14 08:01:07;;;;;;;;;;;;;;;28.71;56.47;99481.25;5013034;28;1961;-64
2022/06/14 08:02:51;;;;;;;;;;;;;;;30.54;50.92;99482.13;5012448;28;801;-63
2022/06/14 08:05:21;;;;;;;;;;;;;;;31.23;51.44;99487.91;5013022;28;878;-62
2022/06/14 08:07:50;;;;;;;;;;;;;;;31.80;49.71;99482.38;5012577;28;894;-64
2022/06/14 08:10:20;;;;;;;;;;;;;;;32.03;48.41;99484.66;5012515;28;850;-63
2022/06/14 08:12:52;;;;;;;;;;;;;;;32.21;48.96;99489.34;5012532;28;827;-64
2022/06/14 08:15:22;;;;;;;;;;;;;;;32.47;50.50;99479.75;5012516;28;906;-63
2022/06/14 08:18:00;;;;;;;;;;;;;;;32.43;51.31;99481.47;5012949;28;783;-62
2022/06/14 08:20:36;;;;;;;;;;;;;;;32.94;49.27;99484.38;5012367;28;1874;-64
2022/06/14 08:23:04;;;;;;;;;;;;;;;32.96;49.28;99483.81;5012641;28;894;-61
2022/06/14 08:25:35;;;;;;;;;;;;;;;32.83;46.12;99481.09;5012504;28;1031;-63
2022/06/14 08:28:10;;;;;;;;;;;;;;;32.90;49.37;99483.22;5012333;28;1000;-62
2022/06/14 08:30:43;;;;;;;;;;;;;;;32.87;46.79;99488.00;5012013;28;1367;-63
2022/06/14 08:33:19;;;;;;;;;;;;;;;32.83;45.92;99484.72;5012133;28;792;-62
2022/06/14 08:35:50;;;;;;;;;;;;;;;32.57;47.41;99485.78;5012208;28;824;-60
2022/06/14 08:38:24;;;;;;;;;;;;;;;32.56;47.63;99492.81;5012067;28;1984;-62
2022/06/14 08:41:01;;;;;;;;;;;;;;;32.51;48.12;99488.75;5012385;28;799;-63
2022/06/14 08:43:45;;;;;;;;;;;;;;;32.55;44.46;99486.31;5012222;28;878;-63
2022/06/14 08:46:31;;;;;;;;;;;;;;;32.46;45.72;99491.78;5012161;28;863;-62
2022/06/14 08:49:18;;;;;;;;;;;;;;;32.69;44.09;99486.19;5012800;28;779;-61
2022/06/14 08:52:11;;;;;;;;;;;;;;;32.72;49.42;99491.56;5011950;28;859;-62
2022/06/14 08:54:38;;;;;;;;;;;;;;;33.09;45.40;99498.00;5012015;28;914;-63
2022/06/14 08:57:05;;;;;;;;;;;;;;;32.73;45.28;99487.38;4994361;28;1158;-64
2022/06/14 08:59:33;;;;;;;;;;;;;;;32.23;45.58;99491.66;5011963;28;1890;-61
2022/06/14 09:02:06;;;;;;;;;;;;;;;32.07;48.90;99490.78;5011138;28;798;-61
2022/06/14 09:04:57;;;;;;;;;;;;;;;31.94;44.53;99491.59;5011829;28;800;-61
2022/06/14 09:07:35;;;;;;;;;;;;;;;31.77;51.32;99492.03;4994360;28;1155;-62
2022/06/14 09:10:10;;;;;;;;;;;;;;;31.68;45.11;99496.16;5011638;28;886;-62
2022/06/14 09:12:41;;;;;;;;;;;;;;;31.68;47.58;99492.53;5011706;28;962;-64
2022/06/14 09:15:07;;;;;;;;;;;;;;;31.90;48.83;99499.75;5011837;28;863;-65
2022/06/14 09:17:54;;;;;;;;;;;;;;;31.90;44.07;99496.91;4994023;28;1371;-61
2022/06/14 09:20:21;;;;;;;;;;;;;;;31.50;46.06;99486.50;5011638;28;1878;-62
2022/06/14 09:23:00;;;;;;;;;;;;;;;31.39;46.65;99483.09;5011700;28;850;-62
2022/06/14 09:25:35;;;;;;;;;;;;;;;31.30;47.78;99482.28;5011651;28;878;-63
2022/06/14 09:31:16;;;;;;;;;;;;;;;31.36;45.42;99484.22;5006073;28;1197;-62
2022/06/14 09:33:57;;;;;;;;;;;;;;;31.07;47.94;99487.75;5011528;28;886;-62
2022/06/14 09:36:23;;;;;;;;;;;;;;;30.99;49.18;99500.41;5011715;28;863;-63
2022/06/14 09:39:09;;;;;;;;;;;;;;;30.76;48.61;99492.28;5011317;28;1977;-62
2022/06/14 09:41:47;;;;;;;;;;;;;;;30.59;50.70;99486.94;5011778;28;890;-62
2022/06/14 09:44:30;;;;;;;;;;;;;;;30.48;51.65;99496.50;5011681;28;873;-63
2022/06/14 09:47:10;;;;;;;;;;;;;;;30.39;50.50;99494.09;5011528;28;839;-63
2022/06/14 09:49:46;;;;;;;;;;;;;;;30.20;51.76;99493.41;5011451;28;884;-62
2022/06/14 09:52:31;;;;;;;;;;;;;;;30.08;50.80;99487.16;5011330;28;919;-63
2022/06/14 09:54:58;;;;;;;;;;;;;;;30.11;52.46;99483.97;5011343;28;839;-61
2022/06/14 09:57:40;;;;;;;;;;;;;;;29.99;49.53;99476.94;5011387;28;831;-62
2022/06/14 10:00:14;;;;;;;;;;;;;;;29.79;49.13;99486.13;5011505;28;1949;-64
2022/06/14 10:31:13;;;;;;;;;;;;;;;30.00;47.80;99457.78;5107425;22;1666;-61
2022/06/14 10:33:46;;;;;;;;;;;;;;;29.80;48.19;99457.09;5034287;28;889;-62
2022/06/14 10:36:28;;;;;;;;;;;;;;;29.71;48.08;99463.97;5034234;28;994;-62
2022/06/14 10:38:55;;;;;;;;;;;;;;;29.76;48.05;99459.50;5033996;28;1902;-63
2022/06/14 10:41:28;;;;;;;;;;;;;;;29.73;48.27;99463.44;5034149;28;854;-63
2022/06/14 10:44:17;;;;;;;;;;;;;;;29.78;46.88;99447.56;5034150;28;849;-61
2022/06/14 10:47:11;;;;;;;;;;;;;;;29.92;46.87;99449.88;5034113;28;1451;-63
2022/06/14 10:49:40;;;;;;;;;;;;;;;30.12;47.01;99453.41;5030826;28;1399;-63
2022/06/14 10:52:25;;;;;;;;;;;;;;;30.22;46.71;99450.88;5033952;28;858;-62
2022/06/14 10:54:54;;;;;;;;;;;;;;;30.43;46.63;99448.94;5033957;28;802;-63
2022/06/14 10:57:37;;;;;;;;;;;;;;;30.77;47.63;99448.19;5033807;28;795;-61
2022/06/14 11:00:14;;;;;;;;;;;;;;;30.64;44.47;99445.38;5033581;28;1953;-61
2022/06/14 11:02:59;;;;;;;;;;;;;;;30.56;45.55;99442.44;5033921;28;863;-62
2022/06/14 11:05:44;;;;;;;;;;;;;;;30.72;46.28;99435.56;5033692;28;862;-63
2022/06/14 11:08:17;;;;;;;;;;;;;;;31.05;46.07;99429.69;5033668;28;878;-63
2022/06/14 11:11:10;;;;;;;;;;;;;;;31.34;45.46;99430.53;5033811;28;791;-62
2022/06/14 11:13:43;;;;;;;;;;;;;;;31.74;44.17;99427.47;5003259;28;1116;-64
2022/06/14 11:16:45;;;;;;;;;;;;;;;31.84;44.27;99434.22;5033507;28;803;-64
2022/06/14 11:19:34;;;;;;;;;;;;;;;31.70;43.09;99424.97;4991207;28;1939;-64
2022/06/14 11:22:10;;;;;;;;;;;;;;;31.89;42.96;99423.94;5033837;28;767;-64
2022/06/14 11:24:43;;;;;;;;;;;;;;;32.05;42.79;99416.25;5032630;28;892;-60
2022/06/14 11:27:22;;;;;;;;;;;;;;;32.18;43.28;99419.03;5015398;28;873;-62
2022/06/14 11:29:55;;;;;;;;;;;;;;;32.21;42.61;99412.16;5033008;28;1209;-61
2022/06/14 11:32:41;;;;;;;;;;;;;;;32.15;43.31;99411.56;5033220;28;783;-62
2022/06/14 11:35:19;;;;;;;;;;;;;;;32.27;42.47;99406.28;5033131;28;897;-63
2022/06/14 11:38:02;;;;;;;;;;;;;;;32.51;43.71;99405.06;5033491;28;1191;-61
2022/06/14 11:40:32;;;;;;;;;;;;;;;33.02;44.04;99395.69;5032955;28;1902;-62
2022/06/14 11:43:02;;;;;;;;;;;;;;;33.33;42.52;99392.88;5033048;28;893;-62
2022/06/14 11:45:47;;;;;;;;;;;;;;;33.30;42.24;99391.16;5033145;28;834;-62
2022/06/14 11:48:17;;;;;;;;;;;;;;;34.05;42.10;99390.88;5032814;28;821;-64
2022/06/14 11:50:53;;;;;;;;;;;;;;;34.27;41.60;99384.34;5033054;28;870;-61
2022/06/14 11:53:25;;;;;;;;;;;;;;;34.49;40.03;99384.84;5032848;28;783;-63
2022/06/14 11:55:54;;;;;;;;;;;;;;;34.46;40.17;99385.97;5032797;28;795;-63
2022/06/14 11:58:32;;;;;;;;;;;;;;;34.10;40.17;99384.19;5032546;28;1928;-62
2022/06/14 12:00:58;;;;;;;;;;;;;;;34.04;39.09;99377.91;5032714;28;881;-63
2022/06/14 12:03:40;;;;;;;;;;;;;;;34.38;39.38;99374.56;5032626;28;854;-62
2022/06/14 12:06:24;;;;;;;;;;;;;;;34.97;39.15;99379.78;5032462;28;850;-63
2022/06/14 12:09:00;;;;;;;;;;;;;;;35.32;38.34;99377.06;5032468;28;810;-64
2022/06/14 12:11:39;;;;;;;;;;;;;;;35.63;38.29;99381.75;5032456;28;866;-62
2022/06/14 12:14:17;;;;;;;;;;;;;;;35.82;37.05;99384.09;5032357;28;865;-65
2022/06/14 12:16:46;;;;;;;;;;;;;;;35.64;36.59;99384.09;5032360;28;882;-64
2022/06/14 12:19:21;;;;;;;;;;;;;;;35.64;36.52;99378.34;5032215;28;1898;-64
2022/06/14 12:22:26;;;;;;;;;;;;;;;35.60;37.20;99372.22;5032320;28;870;-62
2022/06/14 12:27:41;;;;;;;;;;;;;;;35.78;37.83;99373.00;5032434;28;683;-62
2022/06/14 12:30:11;;;;;;;;;;;;;;;35.67;36.73;99371.41;5010881;28;1214;-63
2022/06/14 12:32:46;;;;;;;;;;;;;;;35.33;36.58;99367.09;5012342;28;861;-63
2022/06/14 12:35:22;;;;;;;;;;;;;;;35.10;36.96;99366.47;5012434;28;846;-62
2022/06/14 12:38:12;;;;;;;;;;;;;;;35.41;37.10;99366.28;5012342;28;893;-63
2022/06/14 12:40:46;;;;;;;;;;;;;;;35.43;36.05;99366.44;5012247;28;1972;-65
2022/06/14 12:43:27;;;;;;;;;;;;;;;35.28;35.44;99365.22;5012266;28;881;-63
2022/06/14 12:46:03;;;;;;;;;;;;;;;35.34;35.56;99359.25;5012026;28;1085;-63
2022/06/14 12:48:32;;;;;;;;;;;;;;;35.65;34.81;99361.84;5012313;28;822;-63
2022/06/14 12:51:01;;;;;;;;;;;;;;;35.83;34.51;99369.13;5012340;28;882;-64
2022/06/14 12:53:46;;;;;;;;;;;;;;;35.76;34.60;99373.63;5012052;28;881;-62
2022/06/14 12:56:20;;;;;;;;;;;;;;;35.86;34.76;99381.56;5012146;28;838;-64
2022/06/14 12:58:54;;;;;;;;;;;;;;;36.18;34.01;99389.28;5011800;28;1910;-62
2022/06/14 13:01:58;;;;;;;;;;;;;;;36.33;33.65;99389.09;5011878;28;818;-63
2022/06/14 13:04:37;;;;;;;;;;;;;;;36.34;33.95;99405.00;4990150;28;1101;-63
2022/06/14 13:07:16;;;;;;;;;;;;;;;36.46;34.31;99404.47;4990339;28;893;-62
2022/06/14 13:09:43;;;;;;;;;;;;;;;36.61;34.14;99389.13;5003828;28;894;-63
2022/06/14 13:12:14;;;;;;;;;;;;;;;35.80;34.15;99398.28;5010556;28;1271;-62
2022/06/14 13:14:49;;;;;;;;;;;;;;;35.90;35.52;99394.16;5012045;28;827;-62
2022/06/14 13:17:27;;;;;;;;;;;;;;;35.30;34.93;99393.38;5012102;28;885;-63
2022/06/14 13:20:16;;;;;;;;;;;;;;;34.48;35.18;99395.56;5011714;28;1967;-64
2022/06/14 13:22:46;;;;;;;;;;;;;;;34.04;35.93;99377.91;5011732;28;885;-64
2022/06/14 13:25:40;;;;;;;;;;;;;;;33.73;36.24;99378.72;5012412;28;838;-62
2022/06/14 13:28:28;;;;;;;;;;;;;;;33.86;36.14;99360.53;5010733;28;1248;-61
2022/06/14 13:31:14;;;;;;;;;;;;;;;34.12;36.77;99362.22;5022421;28;1378;-64
2022/06/14 13:33:43;;;;;;;;;;;;;;;33.86;35.86;99342.59;5031372;28;857;-63
2022/06/14 13:36:17;;;;;;;;;;;;;;;33.19;36.61;99374.34;5031360;28;842;-63
2022/06/14 13:39:05;;;;;;;;;;;;;;;31.43;38.79;99367.28;5031459;28;1918;-66
2022/06/14 13:42:04;;;;;;;;;;;;;;;29.46;43.46;99377.94;5031202;28;865;-63
2022/06/14 13:44:38;;;;;;;;;;;;;;;28.30;46.40;99383.53;5031348;28;877;-64
2022/06/14 13:47:34;;;;;;;;;;;;;;;27.61;48.11;99381.22;5031188;28;842;-63
2022/06/14 13:50:18;;;;;;;;;;;;;;;27.01;49.81;99368.59;5017715;28;1433;-62
2022/06/14 13:52:48;;;;;;;;;;;;;;;26.51;51.67;99372.50;5035049;28;917;-62
2022/06/14 13:55:28;;;;;;;;;;;;;;;26.11;53.31;99376.81;5034923;28;878;-62
2022/06/14 13:58:10;;;;;;;;;;;;;;;25.44;53.68;99384.91;5017010;28;1272;-64
2022/06/14 14:00:56;;;;;;;;;;;;;;;24.91;55.81;99395.16;5035002;28;1965;-63
2022/06/14 14:03:25;;;;;;;;;;;;;;;24.55;57.08;99416.66;5035003;28;815;-63
2022/06/14 14:05:55;;;;;;;;;;;;;;;24.34;57.89;99424.50;5034913;28;865;-62
2022/06/14 14:08:31;;;;;;;;;;;;;;;24.16;58.80;99443.44;5035017;28;819;-60
2022/06/14 14:14:07;;;;;;;;;;;;;;;23.94;60.60;99449.72;5034750;28;609;-62
2022/06/14 14:16:38;;;;;;;;;;;;;;;23.84;60.70;99457.63;5034676;28;893;-62
2022/06/14 14:19:15;;;;;;;;;;;;;;;23.82;60.87;99465.03;5034544;28;1882;-63
2022/06/14 14:21:57;;;;;;;;;;;;;;;23.85;59.89;99497.88;5034471;28;842;-60
2022/06/14 14:24:42;;;;;;;;;;;;;;;23.96;59.51;99514.13;5034794;28;818;-62
2022/06/14 14:27:33;;;;;;;;;;;;;;;23.99;60.24;99499.03;5016636;28;1550;-62
2022/06/14 14:30:20;;;;;;;;;;;;;;;23.95;60.96;99501.31;5034467;28;1362;-62
2022/06/14 14:33:01;;;;;;;;;;;;;;;23.96;61.08;99516.94;5034425;28;1160;-62
2022/06/14 14:35:28;;;;;;;;;;;;;;;23.95;61.76;99524.66;5034300;28;889;-62
2022/06/14 14:38:10;;;;;;;;;;;;;;;23.90;62.08;99527.41;5034155;28;854;-62
2022/06/14 14:40:39;;;;;;;;;;;;;;;23.85;62.49;99534.56;5034150;28;1906;-62
2022/06/14 14:43:25;;;;;;;;;;;;;;;23.88;63.21;99541.28;5034248;28;826;-62
2022/06/14 14:45:56;;;;;;;;;;;;;;;23.84;63.63;99541.50;5034039;28;886;-61
2022/06/14 14:48:38;;;;;;;;;;;;;;;23.73;64.17;99550.63;5034037;28;822;-62
2022/06/14 14:51:15;;;;;;;;;;;;;;;23.46;65.19;99549.09;5033981;28;802;-60
2022/06/14 14:54:04;;;;;;;;;;;;;;;23.20;65.19;99552.66;5033910;28;910;-62
2022/06/14 14:56:34;;;;;;;;;;;;;;;22.97;65.75;99545.22;4997330;28;1111;-61